sensor_id;sensor_type;location;lat;lon;timestamp;P1;durP1;ratioP1;P2;durP2;ratioP2
1128;SDS011;553;51.038;7.216;2023-10-19T00:01:16;18.10;;;12.40;;
1128;SDS011;553;51.038;7.216;2023-10-19T00:03:44;18.70;;;13.53;;
1128;SDS011;553;51.038;7.216;2023-10-19T00:06:11;18.07;;;13.47;;
1128;SDS011;553;51.038;7.216;2023-10-19T00:08:38;17.30;;;13.00;;
1128;SDS011;553;51.038;7.216;2023-10-19T00:11:08;19.80;;;15.30;;
1128;SDS011;553;51.038;7.216;2023-10-19T00:13:37;24.40;;;15.70;;
1128;SDS011;553;51.038;7.216;2023-10-19T00:16:05;20.20;;;14.57;;
1128;SDS011;553;51.038;7.216;2023-10-19T00:18:49;21.60;;;15.57;;
1128;SDS011;553;51.038;7.216;2023-10-19T00:21:18;24.60;;;16.80;;
1128;SDS011;553;51.038;7.216;2023-10-19T00:23:52;23.07;;;15.77;;
1128;SDS011;553;51.038;7.216;2023-10-19T00:26:24;20.40;;;15.23;;
1128;SDS011;553;51.038;7.216;2023-10-19T00:28:54;22.07;;;15.03;;
1128;SDS011;553;51.038;7.216;2023-10-19T00:31:22;22.53;;;16.30;;
1128;SDS011;553;51.038;7.216;2023-10-19T00:33:50;22.53;;;16.40;;
1128;SDS011;553;51.038;7.216;2023-10-19T00:36:18;24.10;;;17.37;;
1128;SDS011;553;51.038;7.216;2023-10-19T00:38:47;22.53;;;16.13;;
1128;SDS011;553;51.038;7.216;2023-10-19T00:41:14;26.20;;;17.50;;
1128;SDS011;553;51.038;7.216;2023-10-19T00:43:50;25.80;;;18.27;;
1128;SDS011;553;51.038;7.216;2023-10-19T00:46:24;25.33;;;16.93;;
1128;SDS011;553;51.038;7.216;2023-10-19T00:48:59;24.47;;;18.00;;
1128;SDS011;553;51.038;7.216;2023-10-19T00:51:29;21.50;;;16.00;;
1128;SDS011;553;51.038;7.216;2023-10-19T00:54:05;23.93;;;16.73;;
1128;SDS011;553;51.038;7.216;2023-10-19T00:56:43;22.00;;;16.87;;
1128;SDS011;553;51.038;7.216;2023-10-19T00:59:17;24.00;;;16.57;;
1128;SDS011;553;51.038;7.216;2023-10-19T01:01:53;23.73;;;17.97;;
1128;SDS011;553;51.038;7.216;2023-10-19T01:04:22;22.37;;;16.83;;
1128;SDS011;553;51.038;7.216;2023-10-19T01:06:50;25.13;;;17.90;;
1128;SDS011;553;51.038;7.216;2023-10-19T01:09:36;23.63;;;17.27;;
1128;SDS011;553;51.038;7.216;2023-10-19T01:12:05;24.90;;;16.90;;
1128;SDS011;553;51.038;7.216;2023-10-19T01:17:56;22.30;;;15.40;;
1128;SDS011;553;51.038;7.216;2023-10-19T01:20:28;25.50;;;18.27;;
1128;SDS011;553;51.038;7.216;2023-10-19T01:23:00;23.67;;;16.13;;
1128;SDS011;553;51.038;7.216;2023-10-19T01:28:08;25.30;;;16.90;;
1128;SDS011;553;51.038;7.216;2023-10-19T01:30:36;22.67;;;16.23;;
1128;SDS011;553;51.038;7.216;2023-10-19T01:33:04;29.00;;;18.10;;
1128;SDS011;553;51.038;7.216;2023-10-19T01:35:39;25.00;;;16.73;;
1128;SDS011;553;51.038;7.216;2023-10-19T01:38:26;23.83;;;16.83;;
1128;SDS011;553;51.038;7.216;2023-10-19T01:41:00;25.50;;;16.63;;
1128;SDS011;553;51.038;7.216;2023-10-19T01:43:27;23.27;;;17.40;;
1128;SDS011;553;51.038;7.216;2023-10-19T01:45:58;22.20;;;16.63;;
1128;SDS011;553;51.038;7.216;2023-10-19T01:48:31;22.10;;;16.47;;
1128;SDS011;553;51.038;7.216;2023-10-19T01:51:01;23.07;;;17.73;;
1128;SDS011;553;51.038;7.216;2023-10-19T01:53:34;21.00;;;16.37;;
1128;SDS011;553;51.038;7.216;2023-10-19T01:56:02;24.37;;;16.40;;
1128;SDS011;553;51.038;7.216;2023-10-19T01:58:31;23.70;;;16.97;;
1128;SDS011;553;51.038;7.216;2023-10-19T02:01:03;23.90;;;17.03;;
1128;SDS011;553;51.038;7.216;2023-10-19T02:03:40;23.50;;;17.77;;
1128;SDS011;553;51.038;7.216;2023-10-19T02:06:11;24.23;;;16.70;;
1128;SDS011;553;51.038;7.216;2023-10-19T02:11:45;23.83;;;16.77;;
1128;SDS011;553;51.038;7.216;2023-10-19T02:14:15;23.70;;;17.20;;
1128;SDS011;553;51.038;7.216;2023-10-19T02:16:50;22.40;;;17.60;;
1128;SDS011;553;51.038;7.216;2023-10-19T02:19:19;23.30;;;17.30;;
1128;SDS011;553;51.038;7.216;2023-10-19T02:21:47;25.83;;;17.67;;
1128;SDS011;553;51.038;7.216;2023-10-19T02:24:15;21.23;;;17.57;;
1128;SDS011;553;51.038;7.216;2023-10-19T02:26:42;23.93;;;17.30;;
1128;SDS011;553;51.038;7.216;2023-10-19T02:29:10;24.73;;;17.57;;
1128;SDS011;553;51.038;7.216;2023-10-19T02:31:37;26.03;;;17.17;;
1128;SDS011;553;51.038;7.216;2023-10-19T02:34:07;25.40;;;17.87;;
1128;SDS011;553;51.038;7.216;2023-10-19T02:36:36;21.63;;;16.20;;
1128;SDS011;553;51.038;7.216;2023-10-19T02:39:05;19.93;;;14.60;;
1128;SDS011;553;51.038;7.216;2023-10-19T02:41:37;25.27;;;15.90;;
1128;SDS011;553;51.038;7.216;2023-10-19T02:44:09;24.17;;;16.17;;
1128;SDS011;553;51.038;7.216;2023-10-19T02:46:44;18.60;;;15.20;;
1128;SDS011;553;51.038;7.216;2023-10-19T02:49:12;24.00;;;15.47;;
1128;SDS011;553;51.038;7.216;2023-10-19T02:51:42;25.37;;;15.00;;
1128;SDS011;553;51.038;7.216;2023-10-19T02:54:12;26.50;;;15.17;;
1128;SDS011;553;51.038;7.216;2023-10-19T02:56:47;21.00;;;14.73;;
1128;SDS011;553;51.038;7.216;2023-10-19T02:59:16;21.47;;;15.57;;
1128;SDS011;553;51.038;7.216;2023-10-19T03:01:48;20.00;;;14.30;;
1128;SDS011;553;51.038;7.216;2023-10-19T03:04:17;20.70;;;15.60;;
1128;SDS011;553;51.038;7.216;2023-10-19T03:06:45;20.27;;;14.00;;
1128;SDS011;553;51.038;7.216;2023-10-19T03:09:11;19.50;;;13.93;;
1128;SDS011;553;51.038;7.216;2023-10-19T03:11:46;20.77;;;14.03;;
1128;SDS011;553;51.038;7.216;2023-10-19T03:14:13;17.87;;;14.13;;
1128;SDS011;553;51.038;7.216;2023-10-19T03:16:40;20.07;;;14.20;;
1128;SDS011;553;51.038;7.216;2023-10-19T03:19:08;19.90;;;14.07;;
1128;SDS011;553;51.038;7.216;2023-10-19T03:21:35;20.43;;;14.00;;
1128;SDS011;553;51.038;7.216;2023-10-19T03:24:10;20.20;;;14.07;;
1128;SDS011;553;51.038;7.216;2023-10-19T03:26:50;20.63;;;14.70;;
1128;SDS011;553;51.038;7.216;2023-10-19T03:29:17;20.53;;;15.23;;
1128;SDS011;553;51.038;7.216;2023-10-19T03:31:57;20.60;;;14.40;;
1128;SDS011;553;51.038;7.216;2023-10-19T03:34:27;19.83;;;14.20;;
1128;SDS011;553;51.038;7.216;2023-10-19T03:37:00;22.17;;;14.70;;
1128;SDS011;553;51.038;7.216;2023-10-19T03:39:35;22.77;;;14.47;;
1128;SDS011;553;51.038;7.216;2023-10-19T03:42:05;22.43;;;14.50;;
1128;SDS011;553;51.038;7.216;2023-10-19T03:44:33;21.90;;;15.20;;
1128;SDS011;553;51.038;7.216;2023-10-19T03:47:16;22.13;;;15.27;;
1128;SDS011;553;51.038;7.216;2023-10-19T03:50:00;21.17;;;15.63;;
1128;SDS011;553;51.038;7.216;2023-10-19T03:52:37;21.80;;;15.33;;
1128;SDS011;553;51.038;7.216;2023-10-19T03:55:05;19.13;;;13.90;;
1128;SDS011;553;51.038;7.216;2023-10-19T03:57:37;25.43;;;16.57;;
1128;SDS011;553;51.038;7.216;2023-10-19T04:00:08;20.53;;;14.90;;
1128;SDS011;553;51.038;7.216;2023-10-19T04:02:42;21.53;;;15.73;;
1128;SDS011;553;51.038;7.216;2023-10-19T04:05:09;21.57;;;14.70;;
1128;SDS011;553;51.038;7.216;2023-10-19T04:07:41;22.87;;;15.87;;
1128;SDS011;553;51.038;7.216;2023-10-19T04:10:08;22.50;;;15.40;;
1128;SDS011;553;51.038;7.216;2023-10-19T04:12:37;19.77;;;14.43;;
1128;SDS011;553;51.038;7.216;2023-10-19T04:15:08;20.40;;;14.57;;
1128;SDS011;553;51.038;7.216;2023-10-19T04:17:38;21.37;;;15.00;;
1128;SDS011;553;51.038;7.216;2023-10-19T04:20:06;25.17;;;16.60;;
1128;SDS011;553;51.038;7.216;2023-10-19T04:22:45;23.10;;;14.40;;
1128;SDS011;553;51.038;7.216;2023-10-19T04:25:13;23.30;;;15.73;;
1128;SDS011;553;51.038;7.216;2023-10-19T04:27:52;17.60;;;14.17;;
1128;SDS011;553;51.038;7.216;2023-10-19T04:30:19;21.87;;;15.43;;
1128;SDS011;553;51.038;7.216;2023-10-19T04:32:49;19.90;;;13.10;;
1128;SDS011;553;51.038;7.216;2023-10-19T04:35:19;19.93;;;13.60;;
1128;SDS011;553;51.038;7.216;2023-10-19T04:40:19;19.70;;;13.50;;
1128;SDS011;553;51.038;7.216;2023-10-19T04:42:47;23.03;;;13.33;;
1128;SDS011;553;51.038;7.216;2023-10-19T04:45:16;17.60;;;11.90;;
1128;SDS011;553;51.038;7.216;2023-10-19T04:47:43;16.80;;;12.50;;
1128;SDS011;553;51.038;7.216;2023-10-19T04:50:10;21.00;;;12.50;;
1128;SDS011;553;51.038;7.216;2023-10-19T04:52:37;17.87;;;11.87;;
1128;SDS011;553;51.038;7.216;2023-10-19T04:55:05;18.80;;;12.20;;
1128;SDS011;553;51.038;7.216;2023-10-19T04:57:32;20.97;;;11.90;;
1128;SDS011;553;51.038;7.216;2023-10-19T04:59:59;15.70;;;12.03;;
1128;SDS011;553;51.038;7.216;2023-10-19T05:02:26;16.00;;;11.10;;
1128;SDS011;553;51.038;7.216;2023-10-19T05:04:53;15.97;;;11.20;;
1128;SDS011;553;51.038;7.216;2023-10-19T05:07:20;16.27;;;11.30;;
1128;SDS011;553;51.038;7.216;2023-10-19T05:09:48;15.60;;;11.80;;
1128;SDS011;553;51.038;7.216;2023-10-19T05:12:14;15.47;;;10.73;;
1128;SDS011;553;51.038;7.216;2023-10-19T05:14:42;14.03;;;10.90;;
1128;SDS011;553;51.038;7.216;2023-10-19T05:17:09;17.33;;;11.63;;
1128;SDS011;553;51.038;7.216;2023-10-19T05:19:37;15.67;;;10.90;;
1128;SDS011;553;51.038;7.216;2023-10-19T05:22:05;17.90;;;10.87;;
1128;SDS011;553;51.038;7.216;2023-10-19T05:24:34;14.20;;;10.50;;
1128;SDS011;553;51.038;7.216;2023-10-19T05:27:01;13.53;;;9.73;;
1128;SDS011;553;51.038;7.216;2023-10-19T05:29:31;12.47;;;9.90;;
1128;SDS011;553;51.038;7.216;2023-10-19T05:32:02;19.60;;;10.40;;
1128;SDS011;553;51.038;7.216;2023-10-19T05:34:30;20.50;;;9.93;;
1128;SDS011;553;51.038;7.216;2023-10-19T05:36:59;14.07;;;10.27;;
1128;SDS011;553;51.038;7.216;2023-10-19T05:39:28;11.33;;;8.67;;
1128;SDS011;553;51.038;7.216;2023-10-19T05:41:57;12.40;;;9.17;;
1128;SDS011;553;51.038;7.216;2023-10-19T05:44:28;12.23;;;8.63;;
1128;SDS011;553;51.038;7.216;2023-10-19T05:46:57;12.77;;;9.33;;
1128;SDS011;553;51.038;7.216;2023-10-19T05:49:25;12.67;;;8.97;;
1128;SDS011;553;51.038;7.216;2023-10-19T05:51:52;13.43;;;9.17;;
1128;SDS011;553;51.038;7.216;2023-10-19T05:54:19;15.40;;;9.93;;
1128;SDS011;553;51.038;7.216;2023-10-19T05:56:49;14.63;;;10.00;;
1128;SDS011;553;51.038;7.216;2023-10-19T05:59:16;11.60;;;8.27;;
1128;SDS011;553;51.038;7.216;2023-10-19T06:01:43;14.73;;;8.97;;
1128;SDS011;553;51.038;7.216;2023-10-19T06:04:14;12.40;;;9.60;;
1128;SDS011;553;51.038;7.216;2023-10-19T06:06:46;15.70;;;9.30;;
1128;SDS011;553;51.038;7.216;2023-10-19T06:09:13;12.73;;;8.30;;
1128;SDS011;553;51.038;7.216;2023-10-19T06:11:41;12.23;;;7.90;;
1128;SDS011;553;51.038;7.216;2023-10-19T06:14:09;11.73;;;8.50;;
1128;SDS011;553;51.038;7.216;2023-10-19T06:16:36;10.97;;;8.30;;
1128;SDS011;553;51.038;7.216;2023-10-19T06:19:03;12.63;;;7.83;;
1128;SDS011;553;51.038;7.216;2023-10-19T06:21:30;13.13;;;8.90;;
1128;SDS011;553;51.038;7.216;2023-10-19T06:23:59;16.50;;;10.50;;
1128;SDS011;553;51.038;7.216;2023-10-19T06:26:25;14.40;;;9.23;;
1128;SDS011;553;51.038;7.216;2023-10-19T06:28:52;20.40;;;9.57;;
1128;SDS011;553;51.038;7.216;2023-10-19T06:31:24;13.10;;;9.10;;
1128;SDS011;553;51.038;7.216;2023-10-19T06:33:52;12.30;;;10.10;;
1128;SDS011;553;51.038;7.216;2023-10-19T06:36:19;12.70;;;9.80;;
1128;SDS011;553;51.038;7.216;2023-10-19T06:38:46;11.10;;;9.30;;
1128;SDS011;553;51.038;7.216;2023-10-19T06:41:13;16.57;;;11.97;;
1128;SDS011;553;51.038;7.216;2023-10-19T06:43:40;14.17;;;10.80;;
1128;SDS011;553;51.038;7.216;2023-10-19T06:46:08;16.50;;;11.83;;
1128;SDS011;553;51.038;7.216;2023-10-19T06:48:38;15.67;;;10.97;;
1128;SDS011;553;51.038;7.216;2023-10-19T06:51:05;16.47;;;12.60;;
1128;SDS011;553;51.038;7.216;2023-10-19T06:53:32;16.50;;;11.60;;
1128;SDS011;553;51.038;7.216;2023-10-19T06:56:00;16.40;;;11.67;;
1128;SDS011;553;51.038;7.216;2023-10-19T06:58:27;16.63;;;11.37;;
1128;SDS011;553;51.038;7.216;2023-10-19T07:00:54;19.37;;;12.20;;
1128;SDS011;553;51.038;7.216;2023-10-19T07:03:33;17.27;;;11.57;;
1128;SDS011;553;51.038;7.216;2023-10-19T07:06:00;18.53;;;12.80;;
1128;SDS011;553;51.038;7.216;2023-10-19T07:08:34;17.90;;;11.30;;
1128;SDS011;553;51.038;7.216;2023-10-19T07:11:01;17.57;;;12.00;;
1128;SDS011;553;51.038;7.216;2023-10-19T07:13:28;19.47;;;12.80;;
1128;SDS011;553;51.038;7.216;2023-10-19T07:15:59;16.00;;;12.07;;
1128;SDS011;553;51.038;7.216;2023-10-19T07:18:26;19.13;;;11.93;;
1128;SDS011;553;51.038;7.216;2023-10-19T07:20:54;15.70;;;11.97;;
1128;SDS011;553;51.038;7.216;2023-10-19T07:23:29;17.77;;;11.70;;
1128;SDS011;553;51.038;7.216;2023-10-19T07:25:55;16.47;;;11.47;;
1128;SDS011;553;51.038;7.216;2023-10-19T07:28:26;17.20;;;11.23;;
1128;SDS011;553;51.038;7.216;2023-10-19T07:30:53;16.37;;;11.07;;
1128;SDS011;553;51.038;7.216;2023-10-19T07:33:22;17.70;;;11.73;;
1128;SDS011;553;51.038;7.216;2023-10-19T07:35:49;15.20;;;11.57;;
1128;SDS011;553;51.038;7.216;2023-10-19T07:38:26;14.70;;;10.20;;
1128;SDS011;553;51.038;7.216;2023-10-19T07:40:54;16.10;;;11.10;;
1128;SDS011;553;51.038;7.216;2023-10-19T07:43:22;19.27;;;11.23;;
1128;SDS011;553;51.038;7.216;2023-10-19T07:45:49;16.17;;;10.50;;
1128;SDS011;553;51.038;7.216;2023-10-19T07:48:16;14.33;;;9.67;;
1128;SDS011;553;51.038;7.216;2023-10-19T07:50:43;13.80;;;9.20;;
1128;SDS011;553;51.038;7.216;2023-10-19T07:53:11;15.97;;;9.60;;
1128;SDS011;553;51.038;7.216;2023-10-19T07:55:38;12.43;;;9.57;;
1128;SDS011;553;51.038;7.216;2023-10-19T07:58:05;11.37;;;8.97;;
1128;SDS011;553;51.038;7.216;2023-10-19T08:00:33;13.23;;;8.40;;
1128;SDS011;553;51.038;7.216;2023-10-19T08:03:01;15.00;;;9.30;;
1128;SDS011;553;51.038;7.216;2023-10-19T08:05:29;16.20;;;8.93;;
1128;SDS011;553;51.038;7.216;2023-10-19T08:07:57;8.90;;;6.87;;
1128;SDS011;553;51.038;7.216;2023-10-19T08:10:25;17.93;;;7.67;;
1128;SDS011;553;51.038;7.216;2023-10-19T08:12:53;10.83;;;7.30;;
1128;SDS011;553;51.038;7.216;2023-10-19T08:15:21;13.97;;;6.57;;
1128;SDS011;553;51.038;7.216;2023-10-19T08:17:49;8.67;;;6.60;;
1128;SDS011;553;51.038;7.216;2023-10-19T08:20:20;12.13;;;6.53;;
1128;SDS011;553;51.038;7.216;2023-10-19T08:22:52;9.57;;;6.27;;
1128;SDS011;553;51.038;7.216;2023-10-19T08:25:20;8.27;;;5.80;;
1128;SDS011;553;51.038;7.216;2023-10-19T08:27:47;8.40;;;5.50;;
1128;SDS011;553;51.038;7.216;2023-10-19T08:30:18;8.87;;;5.60;;
1128;SDS011;553;51.038;7.216;2023-10-19T08:32:53;9.93;;;5.10;;
1128;SDS011;553;51.038;7.216;2023-10-19T08:35:20;11.97;;;5.13;;
1128;SDS011;553;51.038;7.216;2023-10-19T08:37:55;13.73;;;5.27;;
1128;SDS011;553;51.038;7.216;2023-10-19T08:40:26;11.07;;;4.60;;
1128;SDS011;553;51.038;7.216;2023-10-19T08:42:54;9.37;;;5.57;;
1128;SDS011;553;51.038;7.216;2023-10-19T08:45:22;9.20;;;4.80;;
1128;SDS011;553;51.038;7.216;2023-10-19T08:47:53;5.60;;;3.90;;
1128;SDS011;553;51.038;7.216;2023-10-19T08:50:26;7.90;;;4.43;;
1128;SDS011;553;51.038;7.216;2023-10-19T08:52:56;4.47;;;2.37;;
1128;SDS011;553;51.038;7.216;2023-10-19T08:55:24;8.70;;;3.90;;
1128;SDS011;553;51.038;7.216;2023-10-19T08:58:11;6.97;;;3.67;;
1128;SDS011;553;51.038;7.216;2023-10-19T09:00:46;6.57;;;3.60;;
1128;SDS011;553;51.038;7.216;2023-10-19T09:03:23;6.03;;;3.57;;
1128;SDS011;553;51.038;7.216;2023-10-19T09:05:51;5.60;;;3.50;;
1128;SDS011;553;51.038;7.216;2023-10-19T09:08:18;5.20;;;2.90;;
1128;SDS011;553;51.038;7.216;2023-10-19T09:10:47;4.80;;;2.83;;
1128;SDS011;553;51.038;7.216;2023-10-19T09:13:15;6.47;;;4.00;;
1128;SDS011;553;51.038;7.216;2023-10-19T09:15:46;10.47;;;3.20;;
1128;SDS011;553;51.038;7.216;2023-10-19T09:18:19;6.37;;;2.80;;
1128;SDS011;553;51.038;7.216;2023-10-19T09:20:47;11.30;;;2.60;;
1128;SDS011;553;51.038;7.216;2023-10-19T09:23:34;6.33;;;2.50;;
1128;SDS011;553;51.038;7.216;2023-10-19T09:26:03;3.53;;;2.27;;
1128;SDS011;553;51.038;7.216;2023-10-19T09:28:34;6.90;;;1.97;;
1128;SDS011;553;51.038;7.216;2023-10-19T09:31:03;8.03;;;2.40;;
1128;SDS011;553;51.038;7.216;2023-10-19T09:33:32;5.10;;;2.37;;
1128;SDS011;553;51.038;7.216;2023-10-19T09:36:03;7.37;;;1.80;;
1128;SDS011;553;51.038;7.216;2023-10-19T09:38:43;4.40;;;1.87;;
1128;SDS011;553;51.038;7.216;2023-10-19T09:41:12;10.50;;;3.20;;
1128;SDS011;553;51.038;7.216;2023-10-19T09:43:43;5.27;;;1.90;;
1128;SDS011;553;51.038;7.216;2023-10-19T09:46:11;4.97;;;1.97;;
1128;SDS011;553;51.038;7.216;2023-10-19T09:48:47;4.50;;;1.80;;
1128;SDS011;553;51.038;7.216;2023-10-19T09:51:14;4.73;;;1.97;;
1128;SDS011;553;51.038;7.216;2023-10-19T09:53:47;3.87;;;1.60;;
1128;SDS011;553;51.038;7.216;2023-10-19T09:56:24;4.30;;;1.80;;
1128;SDS011;553;51.038;7.216;2023-10-19T09:59:02;8.63;;;2.27;;
1128;SDS011;553;51.038;7.216;2023-10-19T10:04:33;8.30;;;2.13;;
1128;SDS011;553;51.038;7.216;2023-10-19T10:07:05;4.60;;;2.27;;
1128;SDS011;553;51.038;7.216;2023-10-19T10:09:42;5.83;;;2.03;;
1128;SDS011;553;51.038;7.216;2023-10-19T10:12:16;6.57;;;2.37;;
1128;SDS011;553;51.038;7.216;2023-10-19T10:17:25;7.10;;;1.60;;
1128;SDS011;553;51.038;7.216;2023-10-19T10:19:56;7.27;;;2.27;;
1128;SDS011;553;51.038;7.216;2023-10-19T10:22:45;6.87;;;2.33;;
1128;SDS011;553;51.038;7.216;2023-10-19T10:25:58;5.20;;;1.80;;
1128;SDS011;553;51.038;7.216;2023-10-19T10:28:25;7.27;;;2.40;;
1128;SDS011;553;51.038;7.216;2023-10-19T10:31:07;6.53;;;1.70;;
1128;SDS011;553;51.038;7.216;2023-10-19T10:33:45;8.77;;;2.00;;
1128;SDS011;553;51.038;7.216;2023-10-19T10:36:18;7.43;;;1.90;;
1128;SDS011;553;51.038;7.216;2023-10-19T10:38:46;8.37;;;2.33;;
1128;SDS011;553;51.038;7.216;2023-10-19T10:43:52;6.60;;;1.77;;
1128;SDS011;553;51.038;7.216;2023-10-19T10:46:21;6.33;;;2.00;;
1128;SDS011;553;51.038;7.216;2023-10-19T10:48:48;9.97;;;2.07;;
1128;SDS011;553;51.038;7.216;2023-10-19T10:51:16;11.70;;;2.53;;
1128;SDS011;553;51.038;7.216;2023-10-19T10:53:49;3.33;;;1.60;;
1128;SDS011;553;51.038;7.216;2023-10-19T10:56:18;5.17;;;1.93;;
1128;SDS011;553;51.038;7.216;2023-10-19T10:58:45;6.13;;;2.10;;
1128;SDS011;553;51.038;7.216;2023-10-19T11:01:13;8.70;;;2.20;;
1128;SDS011;553;51.038;7.216;2023-10-19T11:03:40;5.73;;;1.97;;
1128;SDS011;553;51.038;7.216;2023-10-19T11:06:09;3.17;;;1.40;;
1128;SDS011;553;51.038;7.216;2023-10-19T11:08:38;6.50;;;2.03;;
1128;SDS011;553;51.038;7.216;2023-10-19T11:11:08;8.57;;;2.33;;
1128;SDS011;553;51.038;7.216;2023-10-19T11:13:38;6.20;;;2.17;;
1128;SDS011;553;51.038;7.216;2023-10-19T11:16:06;5.07;;;1.67;;
1128;SDS011;553;51.038;7.216;2023-10-19T11:18:34;6.20;;;2.00;;
1128;SDS011;553;51.038;7.216;2023-10-19T11:21:03;8.20;;;1.87;;
1128;SDS011;553;51.038;7.216;2023-10-19T11:23:40;7.87;;;1.90;;
1128;SDS011;553;51.038;7.216;2023-10-19T11:26:13;6.87;;;2.20;;
1128;SDS011;553;51.038;7.216;2023-10-19T11:28:43;6.17;;;2.10;;
1128;SDS011;553;51.038;7.216;2023-10-19T11:31:21;5.83;;;1.90;;
1128;SDS011;553;51.038;7.216;2023-10-19T11:33:53;11.20;;;2.30;;
1128;SDS011;553;51.038;7.216;2023-10-19T11:36:24;6.10;;;2.03;;
1128;SDS011;553;51.038;7.216;2023-10-19T11:38:53;5.33;;;1.93;;
1128;SDS011;553;51.038;7.216;2023-10-19T11:41:20;3.37;;;1.70;;
1128;SDS011;553;51.038;7.216;2023-10-19T11:43:48;4.70;;;2.10;;
1128;SDS011;553;51.038;7.216;2023-10-19T11:46:16;5.37;;;1.80;;
1128;SDS011;553;51.038;7.216;2023-10-19T11:48:44;4.43;;;2.23;;
1128;SDS011;553;51.038;7.216;2023-10-19T11:51:11;9.00;;;1.90;;
1128;SDS011;553;51.038;7.216;2023-10-19T11:53:40;5.50;;;2.13;;
1128;SDS011;553;51.038;7.216;2023-10-19T11:56:09;10.23;;;2.10;;
1128;SDS011;553;51.038;7.216;2023-10-19T11:58:39;6.27;;;1.87;;
1128;SDS011;553;51.038;7.216;2023-10-19T12:01:08;5.70;;;2.20;;
1128;SDS011;553;51.038;7.216;2023-10-19T12:03:38;8.53;;;2.80;;
1128;SDS011;553;51.038;7.216;2023-10-19T12:06:07;12.60;;;2.37;;
1128;SDS011;553;51.038;7.216;2023-10-19T12:08:35;4.27;;;1.90;;
1128;SDS011;553;51.038;7.216;2023-10-19T12:11:05;4.87;;;1.93;;
1128;SDS011;553;51.038;7.216;2023-10-19T12:13:42;6.23;;;2.90;;
1128;SDS011;553;51.038;7.216;2023-10-19T12:16:12;8.03;;;2.43;;
1128;SDS011;553;51.038;7.216;2023-10-19T12:18:42;6.43;;;2.13;;
1128;SDS011;553;51.038;7.216;2023-10-19T12:21:14;10.43;;;2.70;;
1128;SDS011;553;51.038;7.216;2023-10-19T12:23:41;7.97;;;2.20;;
1128;SDS011;553;51.038;7.216;2023-10-19T12:26:10;8.43;;;3.00;;
1128;SDS011;553;51.038;7.216;2023-10-19T12:28:37;7.70;;;2.50;;
1128;SDS011;553;51.038;7.216;2023-10-19T12:31:08;6.30;;;2.40;;
1128;SDS011;553;51.038;7.216;2023-10-19T12:33:35;5.90;;;2.07;;
1128;SDS011;553;51.038;7.216;2023-10-19T12:36:02;8.17;;;2.13;;
1128;SDS011;553;51.038;7.216;2023-10-19T12:38:49;8.10;;;2.50;;
1128;SDS011;553;51.038;7.216;2023-10-19T12:41:20;7.23;;;2.30;;
1128;SDS011;553;51.038;7.216;2023-10-19T12:43:47;6.07;;;2.23;;
1128;SDS011;553;51.038;7.216;2023-10-19T12:46:14;7.17;;;2.47;;
1128;SDS011;553;51.038;7.216;2023-10-19T12:48:42;8.73;;;3.40;;
1128;SDS011;553;51.038;7.216;2023-10-19T12:51:09;7.47;;;2.13;;
1128;SDS011;553;51.038;7.216;2023-10-19T12:53:37;9.00;;;3.13;;
1128;SDS011;553;51.038;7.216;2023-10-19T12:56:07;6.63;;;2.47;;
1128;SDS011;553;51.038;7.216;2023-10-19T12:58:37;7.50;;;2.33;;
1128;SDS011;553;51.038;7.216;2023-10-19T13:01:04;7.20;;;2.33;;
1128;SDS011;553;51.038;7.216;2023-10-19T13:03:31;12.30;;;2.90;;
1128;SDS011;553;51.038;7.216;2023-10-19T13:05:59;7.83;;;1.90;;
1128;SDS011;553;51.038;7.216;2023-10-19T13:08:30;7.37;;;2.57;;
1128;SDS011;553;51.038;7.216;2023-10-19T13:10:56;5.90;;;2.40;;
1128;SDS011;553;51.038;7.216;2023-10-19T13:13:37;5.57;;;2.50;;
1128;SDS011;553;51.038;7.216;2023-10-19T13:16:05;6.33;;;2.90;;
1128;SDS011;553;51.038;7.216;2023-10-19T13:18:33;8.97;;;2.70;;
1128;SDS011;553;51.038;7.216;2023-10-19T13:21:00;6.23;;;2.47;;
1128;SDS011;553;51.038;7.216;2023-10-19T13:23:31;8.83;;;2.37;;
1128;SDS011;553;51.038;7.216;2023-10-19T13:26:02;8.67;;;2.57;;
1128;SDS011;553;51.038;7.216;2023-10-19T13:28:44;6.87;;;2.50;;
1128;SDS011;553;51.038;7.216;2023-10-19T13:31:11;7.63;;;2.83;;
1128;SDS011;553;51.038;7.216;2023-10-19T13:33:42;4.73;;;2.27;;
1128;SDS011;553;51.038;7.216;2023-10-19T13:36:10;9.53;;;3.00;;
1128;SDS011;553;51.038;7.216;2023-10-19T13:38:37;6.77;;;2.50;;
1128;SDS011;553;51.038;7.216;2023-10-19T13:41:04;7.37;;;2.90;;
1128;SDS011;553;51.038;7.216;2023-10-19T13:43:36;13.50;;;2.87;;
1128;SDS011;553;51.038;7.216;2023-10-19T13:46:05;6.60;;;2.80;;
1128;SDS011;553;51.038;7.216;2023-10-19T13:48:32;6.33;;;2.37;;
1128;SDS011;553;51.038;7.216;2023-10-19T13:50:58;9.13;;;3.30;;
1128;SDS011;553;51.038;7.216;2023-10-19T13:53:39;5.57;;;2.53;;
1128;SDS011;553;51.038;7.216;2023-10-19T13:56:09;10.70;;;2.87;;
1128;SDS011;553;51.038;7.216;2023-10-19T13:58:37;9.10;;;3.20;;
1128;SDS011;553;51.038;7.216;2023-10-19T14:01:07;4.67;;;2.40;;
1128;SDS011;553;51.038;7.216;2023-10-19T14:03:37;7.73;;;3.10;;
1128;SDS011;553;51.038;7.216;2023-10-19T14:06:05;9.60;;;3.67;;
1128;SDS011;553;51.038;7.216;2023-10-19T14:08:38;8.13;;;3.37;;
1128;SDS011;553;51.038;7.216;2023-10-19T14:11:05;10.00;;;3.27;;
1128;SDS011;553;51.038;7.216;2023-10-19T14:13:33;11.03;;;3.53;;
1128;SDS011;553;51.038;7.216;2023-10-19T14:16:05;11.80;;;3.47;;
1128;SDS011;553;51.038;7.216;2023-10-19T14:18:32;9.13;;;3.30;;
1128;SDS011;553;51.038;7.216;2023-10-19T14:20:59;12.73;;;3.97;;
1128;SDS011;553;51.038;7.216;2023-10-19T14:23:27;11.00;;;3.67;;
1128;SDS011;553;51.038;7.216;2023-10-19T14:25:54;13.80;;;3.53;;
1128;SDS011;553;51.038;7.216;2023-10-19T14:28:21;16.27;;;3.83;;
1128;SDS011;553;51.038;7.216;2023-10-19T14:30:48;10.97;;;3.67;;
1128;SDS011;553;51.038;7.216;2023-10-19T14:33:19;8.87;;;4.00;;
1128;SDS011;553;51.038;7.216;2023-10-19T14:35:46;10.63;;;3.13;;
1128;SDS011;553;51.038;7.216;2023-10-19T14:38:13;12.27;;;3.60;;
1128;SDS011;553;51.038;7.216;2023-10-19T14:40:41;10.30;;;4.20;;
1128;SDS011;553;51.038;7.216;2023-10-19T14:43:11;8.33;;;4.37;;
1128;SDS011;553;51.038;7.216;2023-10-19T14:45:39;8.80;;;4.40;;
1128;SDS011;553;51.038;7.216;2023-10-19T14:48:07;7.30;;;4.30;;
1128;SDS011;553;51.038;7.216;2023-10-19T14:50:36;13.87;;;5.27;;
1128;SDS011;553;51.038;7.216;2023-10-19T14:53:03;7.97;;;4.30;;
1128;SDS011;553;51.038;7.216;2023-10-19T14:55:30;10.87;;;5.27;;
1128;SDS011;553;51.038;7.216;2023-10-19T14:57:57;8.40;;;4.70;;
1128;SDS011;553;51.038;7.216;2023-10-19T15:00:26;13.33;;;4.67;;
1128;SDS011;553;51.038;7.216;2023-10-19T15:02:53;7.20;;;4.33;;
1128;SDS011;553;51.038;7.216;2023-10-19T15:05:25;10.80;;;4.97;;
1128;SDS011;553;51.038;7.216;2023-10-19T15:07:54;8.97;;;4.27;;
1128;SDS011;553;51.038;7.216;2023-10-19T15:10:25;9.60;;;4.90;;
1128;SDS011;553;51.038;7.216;2023-10-19T15:12:54;8.63;;;5.43;;
1128;SDS011;553;51.038;7.216;2023-10-19T15:15:22;12.47;;;4.97;;
1128;SDS011;553;51.038;7.216;2023-10-19T15:17:49;8.60;;;5.17;;
1128;SDS011;553;51.038;7.216;2023-10-19T15:20:20;11.30;;;5.60;;
1128;SDS011;553;51.038;7.216;2023-10-19T15:22:51;11.40;;;5.40;;
1128;SDS011;553;51.038;7.216;2023-10-19T15:25:21;7.47;;;5.33;;
1128;SDS011;553;51.038;7.216;2023-10-19T15:27:51;7.23;;;5.50;;
1128;SDS011;553;51.038;7.216;2023-10-19T15:30:19;10.67;;;5.37;;
1128;SDS011;553;51.038;7.216;2023-10-19T15:32:50;12.37;;;5.87;;
1128;SDS011;553;51.038;7.216;2023-10-19T15:35:20;8.93;;;4.63;;
1128;SDS011;553;51.038;7.216;2023-10-19T15:37:51;9.97;;;5.40;;
1128;SDS011;553;51.038;7.216;2023-10-19T15:40:22;11.77;;;5.50;;
1128;SDS011;553;51.038;7.216;2023-10-19T15:42:50;13.37;;;5.27;;
1128;SDS011;553;51.038;7.216;2023-10-19T15:45:20;12.10;;;5.60;;
1128;SDS011;553;51.038;7.216;2023-10-19T15:47:48;10.70;;;5.63;;
1128;SDS011;553;51.038;7.216;2023-10-19T15:50:18;10.97;;;7.00;;
1128;SDS011;553;51.038;7.216;2023-10-19T15:52:44;9.27;;;4.97;;